sensor_id;sensor_type;location;lat;lon;timestamp;temperature;humidity
20714;DHT22;10518;50.742;4.226;2024-01-30T00:01:15;10.30;99.90
20714;DHT22;10518;50.742;4.226;2024-01-30T00:03:41;10.30;99.90
20714;DHT22;10518;50.742;4.226;2024-01-30T00:06:07;10.40;99.90
20714;DHT22;10518;50.742;4.226;2024-01-30T00:08:33;10.40;99.90
20714;DHT22;10518;50.742;4.226;2024-01-30T00:10:59;10.50;99.90
20714;DHT22;10518;50.742;4.226;2024-01-30T00:13:24;10.60;99.90
20714;DHT22;10518;50.742;4.226;2024-01-30T00:15:50;10.60;99.90
20714;DHT22;10518;50.742;4.226;2024-01-30T00:18:15;10.70;99.90
20714;DHT22;10518;50.742;4.226;2024-01-30T00:20:41;10.60;99.90
20714;DHT22;10518;50.742;4.226;2024-01-30T00:23:08;10.60;99.90
20714;DHT22;10518;50.742;4.226;2024-01-30T00:25:33;10.60;99.90
20714;DHT22;10518;50.742;4.226;2024-01-30T00:27:59;10.60;99.90
20714;DHT22;10518;50.742;4.226;2024-01-30T00:30:25;10.60;99.90
20714;DHT22;10518;50.742;4.226;2024-01-30T00:32:50;10.70;99.90
20714;DHT22;10518;50.742;4.226;2024-01-30T00:35:16;10.80;99.90
20714;DHT22;10518;50.742;4.226;2024-01-30T00:37:41;10.80;99.90
20714;DHT22;10518;50.742;4.226;2024-01-30T00:40:07;10.90;99.90
20714;DHT22;10518;50.742;4.226;2024-01-30T00:42:35;10.70;99.90
20714;DHT22;10518;50.742;4.226;2024-01-30T00:45:01;10.70;99.90
20714;DHT22;10518;50.742;4.226;2024-01-30T00:47:27;10.70;99.90
20714;DHT22;10518;50.742;4.226;2024-01-30T00:49:52;10.70;99.90
20714;DHT22;10518;50.742;4.226;2024-01-30T00:52:18;10.80;99.90
20714;DHT22;10518;50.742;4.226;2024-01-30T00:54:43;10.70;99.90
20714;DHT22;10518;50.742;4.226;2024-01-30T00:57:09;10.80;99.90
20714;DHT22;10518;50.742;4.226;2024-01-30T00:59:34;10.80;99.90
20714;DHT22;10518;50.742;4.226;2024-01-30T01:02:01;10.70;99.90
20714;DHT22;10518;50.742;4.226;2024-01-30T01:04:26;10.70;99.90
20714;DHT22;10518;50.742;4.226;2024-01-30T01:06:52;10.60;99.90
20714;DHT22;10518;50.742;4.226;2024-01-30T01:09:18;10.60;99.90
20714;DHT22;10518;50.742;4.226;2024-01-30T01:11:43;10.70;99.90
20714;DHT22;10518;50.742;4.226;2024-01-30T01:14:09;10.80;99.90
20714;DHT22;10518;50.742;4.226;2024-01-30T01:16:34;10.80;99.90
20714;DHT22;10518;50.742;4.226;2024-01-30T01:19:00;10.80;99.90
20714;DHT22;10518;50.742;4.226;2024-01-30T01:21:26;10.90;99.90
20714;DHT22;10518;50.742;4.226;2024-01-30T01:23:51;10.90;99.90
20714;DHT22;10518;50.742;4.226;2024-01-30T01:26:17;11.00;99.90
20714;DHT22;10518;50.742;4.226;2024-01-30T01:28:42;11.00;99.90
20714;DHT22;10518;50.742;4.226;2024-01-30T01:31:08;11.00;99.90
20714;DHT22;10518;50.742;4.226;2024-01-30T01:33:34;11.00;99.90
20714;DHT22;10518;50.742;4.226;2024-01-30T01:36:02;11.00;99.90
20714;DHT22;10518;50.742;4.226;2024-01-30T01:38:28;11.00;99.90
20714;DHT22;10518;50.742;4.226;2024-01-30T01:40:54;11.00;99.90
20714;DHT22;10518;50.742;4.226;2024-01-30T01:43:19;11.00;99.90
20714;DHT22;10518;50.742;4.226;2024-01-30T01:45:45;11.10;99.90
20714;DHT22;10518;50.742;4.226;2024-01-30T01:48:11;11.10;99.90
20714;DHT22;10518;50.742;4.226;2024-01-30T01:50:38;11.10;99.90
20714;DHT22;10518;50.742;4.226;2024-01-30T01:53:07;11.20;99.90
20714;DHT22;10518;50.742;4.226;2024-01-30T01:55:34;11.30;99.90
20714;DHT22;10518;50.742;4.226;2024-01-30T01:58:01;11.40;99.90
20714;DHT22;10518;50.742;4.226;2024-01-30T02:00:27;11.10;99.90
20714;DHT22;10518;50.742;4.226;2024-01-30T02:02:54;11.30;99.90
20714;DHT22;10518;50.742;4.226;2024-01-30T02:05:21;11.10;99.90
20714;DHT22;10518;50.742;4.226;2024-01-30T02:07:46;11.10;99.90
20714;DHT22;10518;50.742;4.226;2024-01-30T02:10:12;11.20;99.90
20714;DHT22;10518;50.742;4.226;2024-01-30T02:12:38;11.20;99.90
20714;DHT22;10518;50.742;4.226;2024-01-30T02:15:04;11.10;99.90
20714;DHT22;10518;50.742;4.226;2024-01-30T02:17:30;11.20;99.90
20714;DHT22;10518;50.742;4.226;2024-01-30T02:19:56;11.20;99.90
20714;DHT22;10518;50.742;4.226;2024-01-30T02:22:22;11.20;99.90
20714;DHT22;10518;50.742;4.226;2024-01-30T02:24:49;11.20;99.90
20714;DHT22;10518;50.742;4.226;2024-01-30T02:27:14;11.20;99.90
20714;DHT22;10518;50.742;4.226;2024-01-30T02:29:40;11.20;99.90
20714;DHT22;10518;50.742;4.226;2024-01-30T02:32:06;11.30;99.90
20714;DHT22;10518;50.742;4.226;2024-01-30T02:34:33;11.30;99.90
20714;DHT22;10518;50.742;4.226;2024-01-30T02:36:58;11.30;99.90
20714;DHT22;10518;50.742;4.226;2024-01-30T02:39:24;11.30;99.90
20714;DHT22;10518;50.742;4.226;2024-01-30T02:41:50;11.30;99.90
20714;DHT22;10518;50.742;4.226;2024-01-30T02:44:15;11.30;99.90
20714;DHT22;10518;50.742;4.226;2024-01-30T02:46:41;11.20;99.90
20714;DHT22;10518;50.742;4.226;2024-01-30T02:49:06;11.20;99.90
20714;DHT22;10518;50.742;4.226;2024-01-30T02:51:32;11.10;99.90
20714;DHT22;10518;50.742;4.226;2024-01-30T02:53:57;11.00;99.90
20714;DHT22;10518;50.742;4.226;2024-01-30T02:56:23;11.00;99.90
20714;DHT22;10518;50.742;4.226;2024-01-30T02:58:48;10.90;99.90
20714;DHT22;10518;50.742;4.226;2024-01-30T03:01:14;11.00;99.90
20714;DHT22;10518;50.742;4.226;2024-01-30T03:03:39;11.00;99.90
20714;DHT22;10518;50.742;4.226;2024-01-30T03:06:06;11.00;99.90
20714;DHT22;10518;50.742;4.226;2024-01-30T03:08:32;11.10;99.90
20714;DHT22;10518;50.742;4.226;2024-01-30T03:10:58;11.00;99.90
20714;DHT22;10518;50.742;4.226;2024-01-30T03:13:23;11.00;99.90
20714;DHT22;10518;50.742;4.226;2024-01-30T03:15:50;11.10;99.90
20714;DHT22;10518;50.742;4.226;2024-01-30T03:18:16;11.10;99.90
20714;DHT22;10518;50.742;4.226;2024-01-30T03:20:41;11.30;99.90
20714;DHT22;10518;50.742;4.226;2024-01-30T03:23:07;11.10;99.90
20714;DHT22;10518;50.742;4.226;2024-01-30T03:25:32;11.10;99.90
20714;DHT22;10518;50.742;4.226;2024-01-30T03:27:58;11.20;99.90
20714;DHT22;10518;50.742;4.226;2024-01-30T03:30:23;11.20;99.90
20714;DHT22;10518;50.742;4.226;2024-01-30T03:32:49;11.20;99.90
20714;DHT22;10518;50.742;4.226;2024-01-30T03:35:15;11.20;99.90
20714;DHT22;10518;50.742;4.226;2024-01-30T03:37:41;11.20;99.90
20714;DHT22;10518;50.742;4.226;2024-01-30T03:40:07;11.20;99.90
20714;DHT22;10518;50.742;4.226;2024-01-30T03:42:32;11.20;99.90
20714;DHT22;10518;50.742;4.226;2024-01-30T03:44:58;11.20;99.90
20714;DHT22;10518;50.742;4.226;2024-01-30T03:47:24;11.20;99.90
20714;DHT22;10518;50.742;4.226;2024-01-30T03:49:49;11.20;99.90
20714;DHT22;10518;50.742;4.226;2024-01-30T03:52:15;11.30;99.90
20714;DHT22;10518;50.742;4.226;2024-01-30T03:54:40;11.10;99.90
20714;DHT22;10518;50.742;4.226;2024-01-30T03:57:06;11.10;99.90
20714;DHT22;10518;50.742;4.226;2024-01-30T03:59:31;11.10;99.90
20714;DHT22;10518;50.742;4.226;2024-01-30T04:01:57;11.30;99.90
20714;DHT22;10518;50.742;4.226;2024-01-30T04:04:23;11.10;99.90
20714;DHT22;10518;50.742;4.226;2024-01-30T04:06:48;11.20;99.90
20714;DHT22;10518;50.742;4.226;2024-01-30T04:09:14;11.20;99.90
20714;DHT22;10518;50.742;4.226;2024-01-30T04:11:40;11.30;99.90
20714;DHT22;10518;50.742;4.226;2024-01-30T04:14:05;11.20;99.90
20714;DHT22;10518;50.742;4.226;2024-01-30T04:16:31;11.20;99.90
20714;DHT22;10518;50.742;4.226;2024-01-30T04:18:57;11.20;99.90
20714;DHT22;10518;50.742;4.226;2024-01-30T04:21:23;11.20;99.90
20714;DHT22;10518;50.742;4.226;2024-01-30T04:23:48;11.20;99.90
20714;DHT22;10518;50.742;4.226;2024-01-30T04:26:14;11.10;99.90
20714;DHT22;10518;50.742;4.226;2024-01-30T04:28:44;11.30;99.90
20714;DHT22;10518;50.742;4.226;2024-01-30T04:31:10;11.10;99.90
20714;DHT22;10518;50.742;4.226;2024-01-30T04:33:36;11.10;99.90
20714;DHT22;10518;50.742;4.226;2024-01-30T04:36:02;11.10;99.90
20714;DHT22;10518;50.742;4.226;2024-01-30T04:38:28;11.10;99.90
20714;DHT22;10518;50.742;4.226;2024-01-30T04:40:54;11.10;99.90
20714;DHT22;10518;50.742;4.226;2024-01-30T04:43:19;11.10;99.90
20714;DHT22;10518;50.742;4.226;2024-01-30T04:45:45;11.10;99.90
20714;DHT22;10518;50.742;4.226;2024-01-30T04:48:10;11.00;99.90
20714;DHT22;10518;50.742;4.226;2024-01-30T04:50:36;11.10;99.90
20714;DHT22;10518;50.742;4.226;2024-01-30T04:53:02;11.10;99.90
20714;DHT22;10518;50.742;4.226;2024-01-30T04:55:27;11.00;99.90
20714;DHT22;10518;50.742;4.226;2024-01-30T04:57:53;11.00;99.90
20714;DHT22;10518;50.742;4.226;2024-01-30T05:00:18;11.00;99.90
20714;DHT22;10518;50.742;4.226;2024-01-30T05:02:44;11.10;99.90
20714;DHT22;10518;50.742;4.226;2024-01-30T05:05:10;11.20;99.90
20714;DHT22;10518;50.742;4.226;2024-01-30T05:07:36;11.10;99.90
20714;DHT22;10518;50.742;4.226;2024-01-30T05:10:02;11.00;99.90
20714;DHT22;10518;50.742;4.226;2024-01-30T05:12:28;11.00;99.90
20714;DHT22;10518;50.742;4.226;2024-01-30T05:14:54;11.10;99.90
20714;DHT22;10518;50.742;4.226;2024-01-30T05:17:19;11.10;99.90
20714;DHT22;10518;50.742;4.226;2024-01-30T05:19:45;11.10;99.90
20714;DHT22;10518;50.742;4.226;2024-01-30T05:22:11;11.10;99.90
20714;DHT22;10518;50.742;4.226;2024-01-30T05:24:41;11.00;99.90
20714;DHT22;10518;50.742;4.226;2024-01-30T05:27:07;11.20;99.90
20714;DHT22;10518;50.742;4.226;2024-01-30T05:29:33;11.00;99.90
20714;DHT22;10518;50.742;4.226;2024-01-30T05:31:58;11.10;99.90
20714;DHT22;10518;50.742;4.226;2024-01-30T05:34:24;11.10;99.90
20714;DHT22;10518;50.742;4.226;2024-01-30T05:36:50;11.10;99.90
20714;DHT22;10518;50.742;4.226;2024-01-30T05:39:15;11.10;99.90
20714;DHT22;10518;50.742;4.226;2024-01-30T05:41:41;11.10;99.90
20714;DHT22;10518;50.742;4.226;2024-01-30T05:44:06;11.10;99.90
20714;DHT22;10518;50.742;4.226;2024-01-30T05:46:33;11.10;99.90
20714;DHT22;10518;50.742;4.226;2024-01-30T05:48:58;11.00;99.90
20714;DHT22;10518;50.742;4.226;2024-01-30T05:51:24;11.00;99.90
20714;DHT22;10518;50.742;4.226;2024-01-30T05:53:49;11.00;99.90
20714;DHT22;10518;50.742;4.226;2024-01-30T05:56:15;11.00;99.90
20714;DHT22;10518;50.742;4.226;2024-01-30T05:58:41;11.10;99.90
20714;DHT22;10518;50.742;4.226;2024-01-30T06:01:08;11.00;99.90
20714;DHT22;10518;50.742;4.226;2024-01-30T06:03:34;11.00;99.90
20714;DHT22;10518;50.742;4.226;2024-01-30T06:05:59;11.00;99.90
20714;DHT22;10518;50.742;4.226;2024-01-30T06:08:25;11.00;99.90
20714;DHT22;10518;50.742;4.226;2024-01-30T06:10:50;11.00;99.90
20714;DHT22;10518;50.742;4.226;2024-01-30T06:13:16;11.00;99.90
20714;DHT22;10518;50.742;4.226;2024-01-30T06:15:42;11.00;99.90
20714;DHT22;10518;50.742;4.226;2024-01-30T06:18:07;10.80;99.90
20714;DHT22;10518;50.742;4.226;2024-01-30T06:20:34;10.90;99.90
20714;DHT22;10518;50.742;4.226;2024-01-30T06:22:59;10.90;99.90
20714;DHT22;10518;50.742;4.226;2024-01-30T06:25:25;10.90;99.90
20714;DHT22;10518;50.742;4.226;2024-01-30T06:27:50;11.00;99.90
20714;DHT22;10518;50.742;4.226;2024-01-30T06:30:16;10.90;99.90
20714;DHT22;10518;50.742;4.226;2024-01-30T06:32:42;11.00;99.90
20714;DHT22;10518;50.742;4.226;2024-01-30T06:35:08;11.00;99.90
20714;DHT22;10518;50.742;4.226;2024-01-30T06:37:33;11.00;99.90
20714;DHT22;10518;50.742;4.226;2024-01-30T06:39:59;11.10;99.90
20714;DHT22;10518;50.742;4.226;2024-01-30T06:42:24;11.00;99.90
20714;DHT22;10518;50.742;4.226;2024-01-30T06:44:50;11.00;99.90
20714;DHT22;10518;50.742;4.226;2024-01-30T06:47:16;10.90;99.90
20714;DHT22;10518;50.742;4.226;2024-01-30T06:49:41;10.90;99.90
20714;DHT22;10518;50.742;4.226;2024-01-30T06:52:09;10.80;99.90
20714;DHT22;10518;50.742;4.226;2024-01-30T06:54:34;10.80;99.90
20714;DHT22;10518;50.742;4.226;2024-01-30T06:57:00;10.70;99.90
20714;DHT22;10518;50.742;4.226;2024-01-30T06:59:26;10.70;99.90
20714;DHT22;10518;50.742;4.226;2024-01-30T07:01:51;11.00;99.90
20714;DHT22;10518;50.742;4.226;2024-01-30T07:04:17;10.80;99.90
20714;DHT22;10518;50.742;4.226;2024-01-30T07:06:43;11.00;99.90
20714;DHT22;10518;50.742;4.226;2024-01-30T07:09:09;10.90;99.90
20714;DHT22;10518;50.742;4.226;2024-01-30T07:11:35;11.00;99.90
20714;DHT22;10518;50.742;4.226;2024-01-30T07:14:00;11.00;99.90
20714;DHT22;10518;50.742;4.226;2024-01-30T07:16:29;11.00;99.90
20714;DHT22;10518;50.742;4.226;2024-01-30T07:18:54;11.00;99.90
20714;DHT22;10518;50.742;4.226;2024-01-30T07:21:21;11.00;99.90
20714;DHT22;10518;50.742;4.226;2024-01-30T07:23:50;11.10;99.90
20714;DHT22;10518;50.742;4.226;2024-01-30T07:26:16;11.10;99.90
20714;DHT22;10518;50.742;4.226;2024-01-30T07:28:41;11.20;99.90
20714;DHT22;10518;50.742;4.226;2024-01-30T07:31:07;11.20;99.90
20714;DHT22;10518;50.742;4.226;2024-01-30T07:33:32;11.30;99.90
20714;DHT22;10518;50.742;4.226;2024-01-30T07:35:58;11.30;99.90
20714;DHT22;10518;50.742;4.226;2024-01-30T07:38:23;11.30;99.90
20714;DHT22;10518;50.742;4.226;2024-01-30T07:40:49;11.20;99.90
20714;DHT22;10518;50.742;4.226;2024-01-30T07:43:15;11.20;99.90
20714;DHT22;10518;50.742;4.226;2024-01-30T07:45:40;11.30;99.90
20714;DHT22;10518;50.742;4.226;2024-01-30T07:48:21;11.30;99.90
20714;DHT22;10518;50.742;4.226;2024-01-30T07:50:47;11.30;99.90
20714;DHT22;10518;50.742;4.226;2024-01-30T07:53:13;11.20;99.90
20714;DHT22;10518;50.742;4.226;2024-01-30T07:55:38;11.30;99.90
20714;DHT22;10518;50.742;4.226;2024-01-30T07:58:04;11.30;99.90
20714;DHT22;10518;50.742;4.226;2024-01-30T08:00:30;11.30;99.90
20714;DHT22;10518;50.742;4.226;2024-01-30T08:02:56;11.30;99.90
20714;DHT22;10518;50.742;4.226;2024-01-30T08:05:22;11.30;99.90
20714;DHT22;10518;50.742;4.226;2024-01-30T08:07:48;11.30;99.90
20714;DHT22;10518;50.742;4.226;2024-01-30T08:10:14;11.30;99.90
20714;DHT22;10518;50.742;4.226;2024-01-30T08:12:40;11.40;99.90
20714;DHT22;10518;50.742;4.226;2024-01-30T08:15:06;11.40;99.90
20714;DHT22;10518;50.742;4.226;2024-01-30T08:17:32;11.40;99.90
20714;DHT22;10518;50.742;4.226;2024-01-30T08:19:58;11.50;99.90
20714;DHT22;10518;50.742;4.226;2024-01-30T08:22:24;11.50;99.90
20714;DHT22;10518;50.742;4.226;2024-01-30T08:24:49;11.40;99.90
20714;DHT22;10518;50.742;4.226;2024-01-30T08:27:15;11.50;99.90
20714;DHT22;10518;50.742;4.226;2024-01-30T08:29:40;11.40;99.90
20714;DHT22;10518;50.742;4.226;2024-01-30T08:32:06;11.40;99.90
20714;DHT22;10518;50.742;4.226;2024-01-30T08:34:32;11.50;99.90
20714;DHT22;10518;50.742;4.226;2024-01-30T08:36:58;11.50;99.90
20714;DHT22;10518;50.742;4.226;2024-01-30T08:39:24;11.60;99.90
20714;DHT22;10518;50.742;4.226;2024-01-30T08:41:49;11.50;99.90
20714;DHT22;10518;50.742;4.226;2024-01-30T08:44:15;11.50;99.90
20714;DHT22;10518;50.742;4.226;2024-01-30T08:46:41;11.50;99.90
20714;DHT22;10518;50.742;4.226;2024-01-30T08:49:07;11.50;99.90
20714;DHT22;10518;50.742;4.226;2024-01-30T08:51:33;11.60;99.90
20714;DHT22;10518;50.742;4.226;2024-01-30T08:53:59;11.50;99.90
20714;DHT22;10518;50.742;4.226;2024-01-30T08:56:25;11.60;99.90
20714;DHT22;10518;50.742;4.226;2024-01-30T08:58:51;11.60;99.90
20714;DHT22;10518;50.742;4.226;2024-01-30T09:01:17;11.70;99.90
20714;DHT22;10518;50.742;4.226;2024-01-30T09:03:42;11.60;99.90
20714;DHT22;10518;50.742;4.226;2024-01-30T09:06:11;11.70;99.90
20714;DHT22;10518;50.742;4.226;2024-01-30T09:08:37;11.80;99.90
20714;DHT22;10518;50.742;4.226;2024-01-30T09:11:12;11.90;99.90
20714;DHT22;10518;50.742;4.226;2024-01-30T09:13:38;12.00;99.90
20714;DHT22;10518;50.742;4.226;2024-01-30T09:16:04;12.10;99.90
20714;DHT22;10518;50.742;4.226;2024-01-30T09:18:29;12.00;99.90
20714;DHT22;10518;50.742;4.226;2024-01-30T09:20:55;12.00;99.90
20714;DHT22;10518;50.742;4.226;2024-01-30T09:23:21;11.90;99.90
20714;DHT22;10518;50.742;4.226;2024-01-30T09:25:50;11.90;99.90
20714;DHT22;10518;50.742;4.226;2024-01-30T09:28:16;11.90;99.90
20714;DHT22;10518;50.742;4.226;2024-01-30T09:30:42;11.90;99.90
20714;DHT22;10518;50.742;4.226;2024-01-30T09:33:08;11.90;99.90
20714;DHT22;10518;50.742;4.226;2024-01-30T09:35:33;11.80;99.90
20714;DHT22;10518;50.742;4.226;2024-01-30T09:37:59;11.90;99.90
20714;DHT22;10518;50.742;4.226;2024-01-30T09:40:25;11.90;99.90
20714;DHT22;10518;50.742;4.226;2024-01-30T09:42:51;12.00;99.90
20714;DHT22;10518;50.742;4.226;2024-01-30T09:45:18;12.00;99.90
20714;DHT22;10518;50.742;4.226;2024-01-30T09:47:47;12.00;99.90
20714;DHT22;10518;50.742;4.226;2024-01-30T09:50:13;12.20;99.90
20714;DHT22;10518;50.742;4.226;2024-01-30T09:52:40;12.30;99.90
20714;DHT22;10518;50.742;4.226;2024-01-30T09:55:06;12.20;99.90
20714;DHT22;10518;50.742;4.226;2024-01-30T09:57:32;12.30;99.90
20714;DHT22;10518;50.742;4.226;2024-01-30T09:59:58;12.30;99.90
20714;DHT22;10518;50.742;4.226;2024-01-30T10:02:24;12.30;99.90
20714;DHT22;10518;50.742;4.226;2024-01-30T10:04:51;12.30;99.90
20714;DHT22;10518;50.742;4.226;2024-01-30T10:07:17;12.40;99.90
20714;DHT22;10518;50.742;4.226;2024-01-30T10:09:43;12.50;99.90
20714;DHT22;10518;50.742;4.226;2024-01-30T10:12:09;12.60;99.90
20714;DHT22;10518;50.742;4.226;2024-01-30T10:14:42;12.60;99.90
20714;DHT22;10518;50.742;4.226;2024-01-30T10:17:08;12.70;99.90
20714;DHT22;10518;50.742;4.226;2024-01-30T10:19:35;12.70;99.90
20714;DHT22;10518;50.742;4.226;2024-01-30T10:22:01;12.80;99.90
20714;DHT22;10518;50.742;4.226;2024-01-30T10:24:26;12.90;99.90
20714;DHT22;10518;50.742;4.226;2024-01-30T10:26:53;12.90;99.90
20714;DHT22;10518;50.742;4.226;2024-01-30T10:29:19;13.00;99.90
20714;DHT22;10518;50.742;4.226;2024-01-30T10:31:44;13.00;99.90
20714;DHT22;10518;50.742;4.226;2024-01-30T10:34:10;13.10;99.90
20714;DHT22;10518;50.742;4.226;2024-01-30T10:36:40;13.20;99.90
20714;DHT22;10518;50.742;4.226;2024-01-30T10:39:08;13.30;99.90
20714;DHT22;10518;50.742;4.226;2024-01-30T10:41:43;13.30;99.90
20714;DHT22;10518;50.742;4.226;2024-01-30T10:44:10;13.40;99.90
20714;DHT22;10518;50.742;4.226;2024-01-30T10:46:38;13.40;99.90
20714;DHT22;10518;50.742;4.226;2024-01-30T10:49:05;13.40;99.90
20714;DHT22;10518;50.742;4.226;2024-01-30T10:51:32;13.40;99.90
20714;DHT22;10518;50.742;4.226;2024-01-30T10:54:00;13.40;99.90
20714;DHT22;10518;50.742;4.226;2024-01-30T10:56:28;13.40;99.90
20714;DHT22;10518;50.742;4.226;2024-01-30T10:58:54;13.30;99.90
20714;DHT22;10518;50.742;4.226;2024-01-30T11:01:23;13.30;99.90
20714;DHT22;10518;50.742;4.226;2024-01-30T11:03:53;13.20;99.90
20714;DHT22;10518;50.742;4.226;2024-01-30T11:06:22;13.20;99.90
20714;DHT22;10518;50.742;4.226;2024-01-30T11:09:04;13.10;99.90
20714;DHT22;10518;50.742;4.226;2024-01-30T11:11:48;13.00;99.90
20714;DHT22;10518;50.742;4.226;2024-01-30T11:14:14;13.00;99.90
20714;DHT22;10518;50.742;4.226;2024-01-30T11:16:40;12.90;99.90
20714;DHT22;10518;50.742;4.226;2024-01-30T11:19:10;12.90;99.90
20714;DHT22;10518;50.742;4.226;2024-01-30T11:21:42;13.00;99.90
20714;DHT22;10518;50.742;4.226;2024-01-30T11:24:08;13.00;99.90
20714;DHT22;10518;50.742;4.226;2024-01-30T11:26:34;12.90;99.90
20714;DHT22;10518;50.742;4.226;2024-01-30T11:29:03;12.90;99.90
20714;DHT22;10518;50.742;4.226;2024-01-30T11:31:29;12.90;99.90
20714;DHT22;10518;50.742;4.226;2024-01-30T11:33:56;12.90;99.90
20714;DHT22;10518;50.742;4.226;2024-01-30T11:36:26;12.80;99.90
20714;DHT22;10518;50.742;4.226;2024-01-30T11:38:52;12.80;99.90
20714;DHT22;10518;50.742;4.226;2024-01-30T11:41:18;12.90;99.90
20714;DHT22;10518;50.742;4.226;2024-01-30T11:43:54;12.90;99.90
20714;DHT22;10518;50.742;4.226;2024-01-30T11:46:19;12.90;99.90
20714;DHT22;10518;50.742;4.226;2024-01-30T11:48:45;12.90;99.90
20714;DHT22;10518;50.742;4.226;2024-01-30T11:51:13;12.90;99.90
20714;DHT22;10518;50.742;4.226;2024-01-30T11:53:39;13.00;99.90
20714;DHT22;10518;50.742;4.226;2024-01-30T11:56:06;13.10;99.90
20714;DHT22;10518;50.742;4.226;2024-01-30T11:58:31;13.10;99.90
20714;DHT22;10518;50.742;4.226;2024-01-30T12:00:57;13.20;99.90
20714;DHT22;10518;50.742;4.226;2024-01-30T12:03:23;13.10;99.90
20714;DHT22;10518;50.742;4.226;2024-01-30T12:05:55;13.20;99.90
20714;DHT22;10518;50.742;4.226;2024-01-30T12:08:22;13.20;99.90
20714;DHT22;10518;50.742;4.226;2024-01-30T12:10:58;13.20;99.90
20714;DHT22;10518;50.742;4.226;2024-01-30T12:13:28;13.20;99.90
20714;DHT22;10518;50.742;4.226;2024-01-30T12:15:54;13.20;99.90
20714;DHT22;10518;50.742;4.226;2024-01-30T12:18:20;13.20;99.90
20714;DHT22;10518;50.742;4.226;2024-01-30T12:20:56;13.00;99.90
20714;DHT22;10518;50.742;4.226;2024-01-30T12:23:21;13.00;99.90
20714;DHT22;10518;50.742;4.226;2024-01-30T12:25:51;12.90;99.90
20714;DHT22;10518;50.742;4.226;2024-01-30T12:28:17;13.00;99.90
20714;DHT22;10518;50.742;4.226;2024-01-30T12:30:42;13.00;99.90
20714;DHT22;10518;50.742;4.226;2024-01-30T12:33:08;12.90;99.90
20714;DHT22;10518;50.742;4.226;2024-01-30T12:35:35;13.00;99.90
20714;DHT22;10518;50.742;4.226;2024-01-30T12:38:01;13.10;99.90
20714;DHT22;10518;50.742;4.226;2024-01-30T12:40:27;13.30;99.90
20714;DHT22;10518;50.742;4.226;2024-01-30T12:42:54;13.40;99.90
20714;DHT22;10518;50.742;4.226;2024-01-30T12:45:19;13.40;99.90
20714;DHT22;10518;50.742;4.226;2024-01-30T12:47:48;13.50;99.90
20714;DHT22;10518;50.742;4.226;2024-01-30T12:50:14;13.50;99.90
20714;DHT22;10518;50.742;4.226;2024-01-30T12:52:42;13.50;99.90
20714;DHT22;10518;50.742;4.226;2024-01-30T12:55:08;13.50;99.90
20714;DHT22;10518;50.742;4.226;2024-01-30T12:57:33;13.50;99.90
20714;DHT22;10518;50.742;4.226;2024-01-30T12:59:59;13.40;99.90
20714;DHT22;10518;50.742;4.226;2024-01-30T13:02:25;13.30;99.90
20714;DHT22;10518;50.742;4.226;2024-01-30T13:04:51;13.00;99.90
20714;DHT22;10518;50.742;4.226;2024-01-30T13:07:17;12.90;99.90
20714;DHT22;10518;50.742;4.226;2024-01-30T13:09:43;12.90;99.90
20714;DHT22;10518;50.742;4.226;2024-01-30T13:12:09;13.00;99.90
20714;DHT22;10518;50.742;4.226;2024-01-30T13:14:35;12.90;99.90
20714;DHT22;10518;50.742;4.226;2024-01-30T13:17:00;12.90;99.90
20714;DHT22;10518;50.742;4.226;2024-01-30T13:19:26;13.00;99.90
20714;DHT22;10518;50.742;4.226;2024-01-30T13:21:52;13.00;99.90
20714;DHT22;10518;50.742;4.226;2024-01-30T13:24:18;13.00;99.90
20714;DHT22;10518;50.742;4.226;2024-01-30T13:26:46;13.00;99.90
20714;DHT22;10518;50.742;4.226;2024-01-30T13:29:12;13.00;99.90
20714;DHT22;10518;50.742;4.226;2024-01-30T13:31:38;13.00;99.90
20714;DHT22;10518;50.742;4.226;2024-01-30T13:34:05;13.10;99.90
20714;DHT22;10518;50.742;4.226;2024-01-30T13:36:32;13.20;99.90
20714;DHT22;10518;50.742;4.226;2024-01-30T13:38:58;13.20;99.90
20714;DHT22;10518;50.742;4.226;2024-01-30T13:41:23;13.20;99.90
20714;DHT22;10518;50.742;4.226;2024-01-30T13:43:49;13.20;99.90
20714;DHT22;10518;50.742;4.226;2024-01-30T13:46:15;13.30;99.90
20714;DHT22;10518;50.742;4.226;2024-01-30T13:48:40;13.30;99.90
20714;DHT22;10518;50.742;4.226;2024-01-30T13:51:06;13.30;99.90
20714;DHT22;10518;50.742;4.226;2024-01-30T13:53:32;13.30;99.90
20714;DHT22;10518;50.742;4.226;2024-01-30T13:55:57;13.40;99.90
20714;DHT22;10518;50.742;4.226;2024-01-30T13:58:23;13.20;99.90
20714;DHT22;10518;50.742;4.226;2024-01-30T14:00:48;13.10;99.90
20714;DHT22;10518;50.742;4.226;2024-01-30T14:03:14;13.10;99.90
20714;DHT22;10518;50.742;4.226;2024-01-30T14:05:40;13.20;99.90
20714;DHT22;10518;50.742;4.226;2024-01-30T14:08:06;13.20;99.90
20714;DHT22;10518;50.742;4.226;2024-01-30T14:10:32;13.10;99.90
20714;DHT22;10518;50.742;4.226;2024-01-30T14:12:58;13.20;99.90
20714;DHT22;10518;50.742;4.226;2024-01-30T14:15:24;13.10;99.90
20714;DHT22;10518;50.742;4.226;2024-01-30T14:17:49;13.00;99.90
20714;DHT22;10518;50.742;4.226;2024-01-30T14:20:15;13.00;99.90
20714;DHT22;10518;50.742;4.226;2024-01-30T14:22:44;13.00;99.90
20714;DHT22;10518;50.742;4.226;2024-01-30T14:25:10;12.90;99.90
20714;DHT22;10518;50.742;4.226;2024-01-30T14:27:36;13.00;99.90
20714;DHT22;10518;50.742;4.226;2024-01-30T14:30:01;12.90;99.90
20714;DHT22;10518;50.742;4.226;2024-01-30T14:32:28;12.90;99.90
20714;DHT22;10518;50.742;4.226;2024-01-30T14:34:54;12.90;99.90
20714;DHT22;10518;50.742;4.226;2024-01-30T14:37:20;12.80;99.90
20714;DHT22;10518;50.742;4.226;2024-01-30T14:39:47;12.60;99.90
20714;DHT22;10518;50.742;4.226;2024-01-30T14:42:14;12.60;99.90
20714;DHT22;10518;50.742;4.226;2024-01-30T14:44:39;12.60;99.90
20714;DHT22;10518;50.742;4.226;2024-01-30T14:47:05;12.40;99.90
20714;DHT22;10518;50.742;4.226;2024-01-30T14:49:31;12.40;99.90
20714;DHT22;10518;50.742;4.226;2024-01-30T14:51:57;12.30;99.90
20714;DHT22;10518;50.742;4.226;2024-01-30T14:54:24;12.10;99.90
20714;DHT22;10518;50.742;4.226;2024-01-30T14:56:50;12.20;99.90
20714;DHT22;10518;50.742;4.226;2024-01-30T14:59:15;12.00;99.90
20714;DHT22;10518;50.742;4.226;2024-01-30T15:01:41;12.00;99.90
20714;DHT22;10518;50.742;4.226;2024-01-30T15:04:07;11.90;99.90
20714;DHT22;10518;50.742;4.226;2024-01-30T15:06:33;12.00;99.90
20714;DHT22;10518;50.742;4.226;2024-01-30T15:08:58;11.80;99.90
20714;DHT22;10518;50.742;4.226;2024-01-30T15:11:24;11.80;99.90
20714;DHT22;10518;50.742;4.226;2024-01-30T15:13:50;11.70;99.90
20714;DHT22;10518;50.742;4.226;2024-01-30T15:16:15;11.50;99.90
20714;DHT22;10518;50.742;4.226;2024-01-30T15:18:41;11.50;99.90
20714;DHT22;10518;50.742;4.226;2024-01-30T15:21:06;11.50;99.90
20714;DHT22;10518;50.742;4.226;2024-01-30T15:23:32;11.50;99.90